Time;durP1;ratioP1;P1;durP2;ratioP2;P2;SDS_P1;SDS_P2;PMS_P1;PMS_P2;Temp;Humidity;BMP_temperature;BMP_pressure;BME280_temperature;BME280_humidity;BME280_pressure;Samples;Min_cycle;Max_cycle;Signal;HPM_P1;HPM_P2
2021/09/28 00:00:37;;;;;;;9.55;4.00;;;;;;;;;;4961227;28;20137;-78
2021/09/28 00:03:03;;;;;;;9.55;3.90;;;;;;;;;;4962879;28;20035;-80
2021/09/28 00:05:29;;;;;;;9.77;4.18;;;;;;;;;;4969041;28;20045;-79
2021/09/28 00:07:56;;;;;;;8.85;3.00;;;;;;;;;;4961176;28;20042;-79
2021/09/28 00:10:22;;;;;;;7.45;3.28;;;;;;;;;;4955989;28;20053;-80
2021/09/28 00:12:48;;;;;;;8.75;3.45;;;;;;;;;;4962541;28;20058;-80
2021/09/28 00:15:16;;;;;;;9.27;3.67;;;;;;;;;;4955535;28;20605;-79
2021/09/28 00:17:43;;;;;;;8.07;3.40;;;;;;;;;;4956037;28;20043;-80
2021/09/28 00:20:09;;;;;;;9.38;3.35;;;;;;;;;;4969516;28;20116;-79
2021/09/28 00:22:36;;;;;;;12.10;4.07;;;;;;;;;;4967413;28;21210;-79
2021/09/28 00:25:03;;;;;;;10.65;3.80;;;;;;;;;;4973596;28;20654;-79
2021/09/28 00:27:29;;;;;;;8.77;3.38;;;;;;;;;;4951663;28;20033;-79
2021/09/28 00:29:56;;;;;;;7.82;3.33;;;;;;;;;;4970147;28;20089;-78
2021/09/28 00:32:22;;;;;;;10.05;3.42;;;;;;;;;;4955862;28;20125;-79
2021/09/28 00:34:49;;;;;;;8.65;3.45;;;;;;;;;;4957162;28;20038;-79
2021/09/28 00:37:15;;;;;;;6.85;2.97;;;;;;;;;;4954794;28;20066;-79
2021/09/28 00:39:41;;;;;;;9.00;2.90;;;;;;;;;;4962532;28;20038;-79
2021/09/28 00:42:07;;;;;;;8.15;3.50;;;;;;;;;;4970861;28;20034;-80
2021/09/28 00:44:38;;;;;;;9.57;3.30;;;;;;;;;;4976791;28;20317;-80
2021/09/28 00:47:05;;;;;;;7.22;3.30;;;;;;;;;;4960617;28;20062;-80
2021/09/28 00:49:31;;;;;;;7.20;2.85;;;;;;;;;;4972731;28;20062;-81
2021/09/28 00:51:57;;;;;;;7.22;3.08;;;;;;;;;;4964652;28;20042;-79
2021/09/28 00:54:24;;;;;;;8.55;3.22;;;;;;;;;;4958959;28;20030;-82
2021/09/28 00:56:50;;;;;;;8.10;3.15;;;;;;;;;;4957316;28;20033;-80
2021/09/28 00:59:17;;;;;;;7.53;2.88;;;;;;;;;;4972652;28;20447;-80
2021/09/28 01:01:43;;;;;;;8.52;3.38;;;;;;;;;;4959096;28;20050;-80
2021/09/28 01:04:09;;;;;;;7.65;3.30;;;;;;;;;;4958109;28;20117;-79
2021/09/28 01:06:35;;;;;;;8.70;3.25;;;;;;;;;;4962264;28;20027;-81
2021/09/28 01:09:01;;;;;;;8.95;3.60;;;;;;;;;;4957585;28;20077;-79
2021/09/28 01:11:28;;;;;;;9.57;3.65;;;;;;;;;;4957879;28;20489;-79
2021/09/28 01:13:54;;;;;;;9.82;3.70;;;;;;;;;;4974075;28;20050;-81
2021/09/28 01:16:20;;;;;;;8.75;3.35;;;;;;;;;;4954359;28;20519;-79
2021/09/28 01:18:46;;;;;;;8.45;3.25;;;;;;;;;;4962483;28;20050;-81
2021/09/28 01:21:14;;;;;;;8.05;2.97;;;;;;;;;;4953150;28;20149;-79
2021/09/28 01:23:44;;;;;;;7.90;2.95;;;;;;;;;;4963306;28;20587;-80
2021/09/28 01:26:17;;;;;;;7.93;2.70;;;;;;;;;;4969398;28;20407;-80
2021/09/28 01:28:44;;;;;;;7.72;2.90;;;;;;;;;;4958138;28;20066;-79
2021/09/28 01:31:10;;;;;;;7.50;3.10;;;;;;;;;;4973660;28;20047;-79
2021/09/28 01:33:36;;;;;;;8.02;3.17;;;;;;;;;;4960305;28;20030;-79
2021/09/28 01:36:03;;;;;;;8.50;3.17;;;;;;;;;;4961658;28;20030;-80
2021/09/28 01:38:29;;;;;;;8.10;3.22;;;;;;;;;;4956979;28;20125;-79
2021/09/28 01:40:57;;;;;;;7.93;3.10;;;;;;;;;;4957733;28;20575;-79
2021/09/28 01:43:24;;;;;;;8.35;3.15;;;;;;;;;;4956584;28;20034;-79
2021/09/28 01:45:56;;;;;;;9.95;3.15;;;;;;;;;;4959314;28;20046;-79
2021/09/28 01:48:24;;;;;;;9.90;3.10;;;;;;;;;;4957739;28;20556;-81
2021/09/28 01:50:50;;;;;;;7.40;2.58;;;;;;;;;;4966316;28;20026;-79
2021/09/28 01:53:17;;;;;;;8.00;3.28;;;;;;;;;;4974028;28;20037;-78
2021/09/28 01:55:43;;;;;;;6.03;2.42;;;;;;;;;;4961149;28;20645;-78
2021/09/28 01:58:10;;;;;;;7.43;2.83;;;;;;;;;;4943124;28;20034;-81
2021/09/28 02:00:36;;;;;;;8.00;2.88;;;;;;;;;;4966515;28;20034;-79
2021/09/28 02:03:02;;;;;;;9.23;2.60;;;;;;;;;;4965399;28;20026;-81
2021/09/28 02:05:28;;;;;;;8.82;2.95;;;;;;;;;;4975366;28;20038;-79
2021/09/28 02:07:55;;;;;;;6.40;2.75;;;;;;;;;;4964479;28;20052;-79
2021/09/28 02:10:21;;;;;;;7.93;2.78;;;;;;;;;;4976073;28;20053;-80
2021/09/28 02:12:48;;;;;;;7.32;2.65;;;;;;;;;;4979327;28;20409;-80
2021/09/28 02:15:14;;;;;;;9.50;2.97;;;;;;;;;;4964958;28;20022;-79
2021/09/28 02:17:44;;;;;;;7.05;2.60;;;;;;;;;;4983310;28;20038;-80
2021/09/28 02:20:10;;;;;;;7.75;2.60;;;;;;;;;;4978437;28;20132;-80
2021/09/28 02:22:37;;;;;;;6.00;2.10;;;;;;;;;;4977027;28;20477;-80
2021/09/28 02:25:04;;;;;;;6.75;2.25;;;;;;;;;;4970836;28;20103;-79
2021/09/28 02:27:30;;;;;;;6.10;2.28;;;;;;;;;;4968164;28;20092;-80
2021/09/28 02:29:56;;;;;;;7.57;2.30;;;;;;;;;;4979106;28;20500;-80
2021/09/28 02:32:23;;;;;;;7.78;2.22;;;;;;;;;;4962087;28;20492;-79
2021/09/28 02:34:49;;;;;;;7.82;2.72;;;;;;;;;;4960857;28;20125;-80
2021/09/28 02:37:15;;;;;;;6.35;2.20;;;;;;;;;;4941574;28;20105;-80
2021/09/28 02:39:41;;;;;;;8.27;2.50;;;;;;;;;;4945954;28;20043;-79
2021/09/28 02:42:08;;;;;;;8.40;2.55;;;;;;;;;;4941290;28;20033;-80
2021/09/28 02:44:34;;;;;;;8.23;2.28;;;;;;;;;;4975985;28;20035;-81
2021/09/28 02:47:01;;;;;;;7.38;2.33;;;;;;;;;;4942365;28;20042;-81
2021/09/28 02:49:27;;;;;;;7.88;2.63;;;;;;;;;;4956058;28;20366;-79
2021/09/28 02:51:53;;;;;;;7.53;2.80;;;;;;;;;;4970880;28;20436;-80
2021/09/28 02:54:19;;;;;;;;;;;;;;;;;;4954167;28;20436;-79
2021/09/28 02:56:45;;;;;;;8.38;3.15;;;;;;;;;;4948328;28;20395;-79
2021/09/28 02:59:12;;;;;;;8.85;2.78;;;;;;;;;;4937297;28;20307;-79
2021/09/28 03:01:38;;;;;;;7.53;2.70;;;;;;;;;;4946830;28;20477;-79
2021/09/28 03:04:05;;;;;;;7.20;2.72;;;;;;;;;;4950756;28;20042;-79
2021/09/28 03:06:31;;;;;;;7.35;2.63;;;;;;;;;;4955673;28;20034;-79
2021/09/28 03:08:58;;;;;;;8.10;2.70;;;;;;;;;;4965472;28;20108;-79
2021/09/28 03:11:27;;;;;;;7.18;2.60;;;;;;;;;;4955737;28;20056;-79
2021/09/28 03:13:55;;;;;;;5.80;2.22;;;;;;;;;;4960565;28;20037;-79
2021/09/28 03:16:21;;;;;;;8.40;2.88;;;;;;;;;;4963420;28;20058;-79
2021/09/28 03:18:50;;;;;;;12.43;3.45;;;;;;;;;;4977021;28;20088;-79
2021/09/28 03:21:19;;;;;;;8.82;3.25;;;;;;;;;;4957187;28;20133;-79
2021/09/28 03:23:45;;;;;;;8.57;2.92;;;;;;;;;;4947756;28;20057;-79
2021/09/28 03:26:12;;;;;;;8.65;2.97;;;;;;;;;;4953906;28;20155;-79
2021/09/28 03:28:38;;;;;;;11.23;3.00;;;;;;;;;;4956108;28;20158;-79
2021/09/28 03:31:05;;;;;;;7.40;2.60;;;;;;;;;;4951970;28;20059;-78
2021/09/28 03:33:31;;;;;;;9.65;3.53;;;;;;;;;;4956170;28;20031;-79
2021/09/28 03:35:57;;;;;;;9.27;3.33;;;;;;;;;;4984381;28;20026;-80
2021/09/28 03:38:23;;;;;;;9.40;3.00;;;;;;;;;;4958279;28;20511;-80
2021/09/28 03:40:49;;;;;;;7.97;3.10;;;;;;;;;;4967725;28;20034;-81
2021/09/28 03:43:16;;;;;;;9.23;3.35;;;;;;;;;;4976237;28;20096;-80
2021/09/28 03:45:42;;;;;;;8.85;3.28;;;;;;;;;;4962108;28;20539;-80
2021/09/28 03:48:09;;;;;;;9.32;3.45;;;;;;;;;;4960017;28;20097;-80
2021/09/28 03:50:35;;;;;;;9.52;3.75;;;;;;;;;;4959816;28;20112;-81
2021/09/28 03:53:01;;;;;;;7.80;3.10;;;;;;;;;;4979303;28;20037;-80
2021/09/28 03:55:27;;;;;;;;;;;;;;;;;;4973950;28;21096;-77
2021/09/28 03:57:53;;;;;;;10.95;3.67;;;;;;;;;;4974940;28;20059;-81
2021/09/28 04:00:20;;;;;;;7.80;3.25;;;;;;;;;;4959792;28;20053;-79
2021/09/28 04:02:47;;;;;;;9.43;3.38;;;;;;;;;;4963119;28;20097;-79
2021/09/28 04:05:13;;;;;;;12.20;3.83;;;;;;;;;;4958397;28;20057;-79
2021/09/28 04:07:40;;;;;;;8.60;3.15;;;;;;;;;;4962471;28;20038;-79
2021/09/28 04:10:07;;;;;;;9.25;3.35;;;;;;;;;;4960645;28;20054;-79
2021/09/28 04:12:33;;;;;;;9.27;3.25;;;;;;;;;;4980108;28;20064;-79
2021/09/28 04:15:00;;;;;;;7.95;3.58;;;;;;;;;;4980264;28;20023;-79
2021/09/28 04:17:27;;;;;;;8.43;3.30;;;;;;;;;;4972252;28;21260;-75
2021/09/28 04:19:53;;;;;;;8.20;3.38;;;;;;;;;;4977551;28;20034;-75
2021/09/28 04:22:20;;;;;;;7.70;3.13;;;;;;;;;;4976450;28;20121;-76
2021/09/28 04:24:46;;;;;;;11.00;3.80;;;;;;;;;;4981706;28;20814;-76
2021/09/28 04:27:12;;;;;;;9.88;3.50;;;;;;;;;;4963701;28;20141;-75
2021/09/28 04:29:39;;;;;;;10.50;4.60;;;;;;;;;;4976297;28;20049;-76
2021/09/28 04:32:06;;;;;;;9.15;3.70;;;;;;;;;;4967433;28;20046;-76
2021/09/28 04:34:32;;;;;;;9.50;4.07;;;;;;;;;;4962291;28;20031;-75
2021/09/28 04:36:58;;;;;;;;;;;;;;;;;;4981491;28;20125;-76
2021/09/28 04:39:27;;;;;;;10.10;3.95;;;;;;;;;;4975604;28;19925;-76
2021/09/28 04:41:53;;;;;;;9.48;3.65;;;;;;;;;;4959820;28;20077;-78
2021/09/28 04:44:20;;;;;;;9.48;3.58;;;;;;;;;;4961555;28;20125;-76
2021/09/28 04:46:46;;;;;;;10.98;4.10;;;;;;;;;;4960538;28;20068;-77
2021/09/28 04:49:12;;;;;;;8.88;3.55;;;;;;;;;;4962816;28;20030;-77
2021/09/28 04:51:39;;;;;;;8.82;4.00;;;;;;;;;;4963521;28;20053;-77
2021/09/28 04:54:08;;;;;;;9.02;3.28;;;;;;;;;;4962176;28;20042;-76
2021/09/28 04:56:36;;;;;;;10.40;3.78;;;;;;;;;;4976559;28;20034;-76
2021/09/28 04:59:03;;;;;;;9.85;3.85;;;;;;;;;;4972587;28;20491;-76
2021/09/28 05:01:29;;;;;;;9.57;3.17;;;;;;;;;;4956036;28;20397;-76
2021/09/28 05:03:59;;;;;;;13.18;4.35;;;;;;;;;;4962065;28;20499;-75
2021/09/28 05:06:25;;;;;;;9.00;3.65;;;;;;;;;;4954406;28;20647;-75
2021/09/28 05:08:51;;;;;;;;;;;;;;;;;;4962977;28;20025;-75
2021/09/28 05:11:17;;;;;;;10.57;3.90;;;;;;;;;;4970940;28;19930;-76
2021/09/28 05:13:44;;;;;;;8.75;3.97;;;;;;;;;;4965046;28;20042;-76
2021/09/28 05:16:10;;;;;;;9.45;3.60;;;;;;;;;;4977667;28;20042;-76
2021/09/28 05:18:36;;;;;;;9.60;3.80;;;;;;;;;;4978650;28;20053;-76
2021/09/28 05:21:03;;;;;;;10.18;3.72;;;;;;;;;;4966518;28;20037;-76
2021/09/28 05:23:29;;;;;;;10.40;3.92;;;;;;;;;;4972598;28;20042;-75
2021/09/28 05:25:59;;;;;;;11.18;3.58;;;;;;;;;;4966968;28;20042;-77
2021/09/28 05:28:27;;;;;;;10.43;4.30;;;;;;;;;;4961550;28;20141;-77
2021/09/28 05:30:54;;;;;;;;;;;;;;;;;;4967875;28;20507;-76
2021/09/28 05:33:20;;;;;;;9.90;3.42;;;;;;;;;;4965505;28;19914;-76
2021/09/28 05:35:47;;;;;;;11.43;3.60;;;;;;;;;;4987677;28;20026;-74
2021/09/28 05:38:13;;;;;;;9.57;3.75;;;;;;;;;;4964666;28;20054;-76
2021/09/28 05:40:39;;;;;;;10.82;3.75;;;;;;;;;;4966300;28;20037;-77
2021/09/28 05:43:06;;;;;;;8.95;4.00;;;;;;;;;;4964661;28;20093;-76
2021/09/28 05:45:32;;;;;;;8.68;3.28;;;;;;;;;;4966648;28;20119;-76
2021/09/28 05:47:59;;;;;;;10.60;3.67;;;;;;;;;;4987718;28;20570;-79
2021/09/28 05:50:26;;;;;;;8.95;3.42;;;;;;;;;;4977602;28;20038;-75
2021/09/28 05:53:18;;;;;;;9.75;3.13;;;;;;;;;;4962361;28;20073;-77
2021/09/28 05:55:44;;;;;;;15.60;3.70;;;;;;;;;;4964872;28;20515;-74
2021/09/28 05:58:10;;;;;;;12.98;3.72;;;;;;;;;;4966035;28;20797;-77
2021/09/28 06:00:36;;;;;;;11.45;3.95;;;;;;;;;;4969252;28;20033;-77
2021/09/28 06:03:03;;;;;;;15.20;3.85;;;;;;;;;;4982247;28;20633;-76
2021/09/28 06:05:29;;;;;;;12.95;3.20;;;;;;;;;;4982768;28;20068;-78
2021/09/28 06:07:55;;;;;;;15.15;3.67;;;;;;;;;;4968861;28;21967;-77
2021/09/28 06:10:22;;;;;;;10.43;3.83;;;;;;;;;;4963883;28;20057;-77
2021/09/28 06:12:48;;;;;;;10.38;3.20;;;;;;;;;;4966155;28;20149;-75
2021/09/28 06:15:14;;;;;;;16.65;3.85;;;;;;;;;;4964974;28;20056;-76
2021/09/28 06:17:40;;;;;;;11.48;3.55;;;;;;;;;;4969511;28;20040;-76
2021/09/28 06:20:08;;;;;;;11.05;3.20;;;;;;;;;;4964128;28;20022;-76
2021/09/28 06:22:34;;;;;;;11.90;3.67;;;;;;;;;;4974434;28;20085;-76
2021/09/28 06:25:01;;;;;;;15.73;3.53;;;;;;;;;;4986426;28;20036;-77
2021/09/28 06:27:27;;;;;;;12.65;3.75;;;;;;;;;;4961782;28;21293;-77
2021/09/28 06:29:53;;;;;;;11.90;3.30;;;;;;;;;;4986737;28;20045;-76
2021/09/28 06:32:22;;;;;;;14.73;3.90;;;;;;;;;;4964032;28;20039;-76
2021/09/28 06:34:52;;;;;;;12.38;2.97;;;;;;;;;;4963755;28;20034;-76
2021/09/28 06:37:18;;;;;;;11.38;3.22;;;;;;;;;;4953792;28;20051;-77
2021/09/28 06:39:47;;;;;;;9.15;3.40;;;;;;;;;;4963241;28;20050;-76
2021/09/28 06:42:13;;;;;;;13.10;3.63;;;;;;;;;;4970885;28;20117;-75
2021/09/28 06:44:39;;;;;;;11.93;3.80;;;;;;;;;;4961003;28;20125;-75
2021/09/28 06:47:06;;;;;;;9.48;3.50;;;;;;;;;;4959694;28;20522;-76
2021/09/28 06:49:32;;;;;;;8.95;3.20;;;;;;;;;;4962744;28;20030;-76
2021/09/28 06:51:58;;;;;;;11.50;3.35;;;;;;;;;;4962587;28;20125;-76
2021/09/28 06:54:25;;;;;;;10.48;4.25;;;;;;;;;;4970764;28;20064;-76
2021/09/28 06:56:51;;;;;;;13.05;3.55;;;;;;;;;;4960456;28;20030;-76
2021/09/28 06:59:18;;;;;;;13.10;3.47;;;;;;;;;;4972677;28;20042;-77
2021/09/28 07:01:44;;;;;;;10.68;3.15;;;;;;;;;;4958888;28;20081;-75
2021/09/28 07:04:10;;;;;;;9.30;3.15;;;;;;;;;;4954196;28;20069;-75
2021/09/28 07:06:37;;;;;;;7.93;3.00;;;;;;;;;;4953487;28;20125;-76
2021/09/28 07:09:03;;;;;;;9.98;3.20;;;;;;;;;;4958020;28;20026;-76
2021/09/28 07:11:30;;;;;;;9.07;3.10;;;;;;;;;;4955934;28;20047;-76
2021/09/28 07:13:56;;;;;;;8.82;3.10;;;;;;;;;;4974891;28;20034;-76
2021/09/28 07:16:23;;;;;;;7.15;2.72;;;;;;;;;;4952667;28;20078;-76
2021/09/28 07:18:49;;;;;;;8.45;2.95;;;;;;;;;;4970771;28;20093;-76
2021/09/28 07:21:15;;;;;;;9.13;3.30;;;;;;;;;;4958996;28;20617;-76
2021/09/28 07:23:41;;;;;;;9.10;3.10;;;;;;;;;;4962797;28;20049;-77
2021/09/28 07:26:08;;;;;;;6.95;2.67;;;;;;;;;;4969659;28;20061;-78
2021/09/28 07:28:35;;;;;;;8.95;3.25;;;;;;;;;;4959604;28;20041;-77
2021/09/28 07:31:01;;;;;;;9.07;3.20;;;;;;;;;;4954419;28;20049;-77
2021/09/28 07:33:28;;;;;;;9.25;3.70;;;;;;;;;;4956999;28;20038;-77
2021/09/28 07:35:54;;;;;;;7.47;3.10;;;;;;;;;;4962991;28;20031;-77
2021/09/28 07:38:20;;;;;;;9.63;3.45;;;;;;;;;;4954028;28;20514;-76
2021/09/28 07:40:47;;;;;;;7.97;3.25;;;;;;;;;;4962630;28;20041;-75
2021/09/28 07:43:14;;;;;;;8.88;3.58;;;;;;;;;;4960223;28;20035;-75
2021/09/28 07:45:40;;;;;;;8.45;3.00;;;;;;;;;;4960827;28;20121;-76
2021/09/28 07:48:07;;;;;;;7.25;2.97;;;;;;;;;;4963361;28;20534;-76
2021/09/28 07:50:33;;;;;;;11.15;2.90;;;;;;;;;;4961801;28;20481;-75
2021/09/28 07:52:59;;;;;;;9.07;2.75;;;;;;;;;;4974881;28;20034;-75
2021/09/28 07:55:26;;;;;;;9.45;2.90;;;;;;;;;;4971888;28;20039;-75
2021/09/28 07:57:53;;;;;;;8.35;3.10;;;;;;;;;;4962270;28;20173;-76
2021/09/28 08:00:20;;;;;;;9.38;2.95;;;;;;;;;;4968584;28;20038;-76
2021/09/28 08:02:46;;;;;;;8.85;2.97;;;;;;;;;;4959302;28;20607;-75
2021/09/28 08:05:13;;;;;;;7.40;2.40;;;;;;;;;;4950723;28;20053;-76
2021/09/28 08:07:39;;;;;;;8.23;2.50;;;;;;;;;;4956716;28;20121;-76
2021/09/28 08:10:07;;;;;;;6.68;2.25;;;;;;;;;;4957345;28;20035;-77
2021/09/28 08:12:33;;;;;;;8.15;2.28;;;;;;;;;;4975694;28;20085;-76
2021/09/28 08:14:59;;;;;;;7.88;2.08;;;;;;;;;;4959961;28;20027;-77
2021/09/28 08:17:26;;;;;;;7.28;2.45;;;;;;;;;;4970343;28;21062;-77
2021/09/28 08:19:54;;;;;;;10.27;2.70;;;;;;;;;;4976999;28;20035;-76
2021/09/28 08:22:20;;;;;;;6.75;1.80;;;;;;;;;;4955518;28;20105;-76
2021/09/28 08:24:50;;;;;;;6.95;1.90;;;;;;;;;;4959939;28;20034;-75
2021/09/28 08:30:02;;;;;;;6.45;1.52;;;;;;;;;;4958292;28;21928;-77
2021/09/28 08:32:29;;;;;;;5.78;1.80;;;;;;;;;;4952131;28;20030;-77
2021/09/28 08:34:58;;;;;;;7.40;2.05;;;;;;;;;;4961604;28;20026;-77
2021/09/28 08:37:26;;;;;;;6.85;1.90;;;;;;;;;;4952215;28;20086;-76
2021/09/28 08:39:53;;;;;;;7.80;2.28;;;;;;;;;;4959437;28;20148;-76
2021/09/28 08:42:19;;;;;;;8.30;2.22;;;;;;;;;;4956656;28;20038;-76
2021/09/28 08:44:45;;;;;;;8.52;2.03;;;;;;;;;;4957787;28;20041;-76
2021/09/28 08:47:11;;;;;;;9.43;2.08;;;;;;;;;;4955679;28;20899;-76
2021/09/28 08:49:38;;;;;;;8.10;1.73;;;;;;;;;;4973821;28;20517;-76
2021/09/28 08:52:05;;;;;;;8.27;1.70;;;;;;;;;;4958726;28;20053;-76
2021/09/28 08:54:31;;;;;;;7.75;1.70;;;;;;;;;;4971721;28;20040;-76
2021/09/28 08:56:57;;;;;;;6.22;1.75;;;;;;;;;;4975531;28;20053;-76
2021/09/28 08:59:38;;;;;;;7.22;1.70;;;;;;;;;;4951273;28;20752;-76
2021/09/28 09:02:09;;;;;;;8.75;2.28;;;;;;;;;;4958793;28;20496;-76
2021/09/28 09:04:35;;;;;;;8.95;1.60;;;;;;;;;;4952795;28;20047;-76
2021/09/28 09:07:20;;;;;;;11.10;2.10;;;;;;;;;;4971857;28;20034;-76
2021/09/28 09:09:49;;;;;;;7.25;1.70;;;;;;;;;;4958735;28;20141;-77
2021/09/28 09:12:28;;;;;;;9.60;1.75;;;;;;;;;;4952659;28;20038;-77
2021/09/28 09:15:14;;;;;;;7.15;1.40;;;;;;;;;;4971298;28;20070;-77
2021/09/28 09:17:41;;;;;;;7.55;1.60;;;;;;;;;;4957391;28;20081;-76
2021/09/28 09:20:23;;;;;;;7.85;1.55;;;;;;;;;;4958440;28;20118;-76
2021/09/28 09:22:50;;;;;;;6.75;1.50;;;;;;;;;;4970506;28;20143;-77
2021/09/28 09:25:20;;;;;;;6.90;1.48;;;;;;;;;;4957441;28;20488;-77
2021/09/28 09:27:50;;;;;;;9.02;1.58;;;;;;;;;;4960271;28;20039;-77
2021/09/28 09:30:21;;;;;;;8.15;1.55;;;;;;;;;;4936230;28;20034;-77
2021/09/28 09:32:55;;;;;;;7.13;1.42;;;;;;;;;;4958274;28;20120;-77
2021/09/28 09:35:35;;;;;;;9.88;1.90;;;;;;;;;;4959261;28;20046;-78
2021/09/28 09:38:07;;;;;;;8.05;1.70;;;;;;;;;;4957827;28;20038;-76
2021/09/28 09:40:38;;;;;;;5.97;1.33;;;;;;;;;;4961075;28;20035;-77
2021/09/28 09:43:05;;;;;;;7.63;1.40;;;;;;;;;;4960514;28;20069;-77
2021/09/28 09:45:31;;;;;;;7.15;1.42;;;;;;;;;;4953707;28;20030;-77
2021/09/28 09:47:58;;;;;;;7.25;1.65;;;;;;;;;;4959396;28;20631;-77
2021/09/28 09:50:26;;;;;;;7.97;1.60;;;;;;;;;;4953681;28;20137;-76
2021/09/28 09:53:03;;;;;;;9.40;1.80;;;;;;;;;;4958395;28;20042;-77
2021/09/28 09:55:33;;;;;;;10.43;1.67;;;;;;;;;;4951344;28;20228;-77
2021/09/28 09:58:00;;;;;;;6.85;2.05;;;;;;;;;;4957842;28;20116;-77
2021/09/28 10:00:28;;;;;;;8.57;1.52;;;;;;;;;;4956613;28;20030;-77
2021/09/28 10:02:54;;;;;;;8.55;1.90;;;;;;;;;;4972817;28;20038;-76
2021/09/28 10:05:21;;;;;;;8.77;1.90;;;;;;;;;;4971331;28;20166;-76
2021/09/28 10:07:51;;;;;;;6.25;1.25;;;;;;;;;;4957202;28;20035;-76
2021/09/28 10:10:21;;;;;;;6.55;1.33;;;;;;;;;;4970301;28;20046;-76
2021/09/28 10:12:47;;;;;;;9.13;1.55;;;;;;;;;;4979738;28;20038;-77
2021/09/28 10:15:17;;;;;;;7.78;1.60;;;;;;;;;;4959119;28;20664;-77
2021/09/28 10:17:47;;;;;;;9.48;1.63;;;;;;;;;;4968287;28;20125;-76
2021/09/28 10:20:31;;;;;;;8.82;1.85;;;;;;;;;;4958437;28;20169;-76
2021/09/28 10:23:14;;;;;;;7.53;1.50;;;;;;;;;;4960089;28;20145;-75
2021/09/28 10:25:46;;;;;;;8.18;1.45;;;;;;;;;;4955619;28;20030;-76
2021/09/28 10:28:13;;;;;;;6.78;1.20;;;;;;;;;;4973309;28;20610;-76
2021/09/28 10:30:39;;;;;;;7.93;1.40;;;;;;;;;;4972098;28;20034;-76
2021/09/28 10:33:11;;;;;;;8.48;1.40;;;;;;;;;;4962812;28;20025;-77
2021/09/28 10:35:53;;;;;;;6.90;1.48;;;;;;;;;;4975509;28;20043;-76
2021/09/28 10:38:20;;;;;;;8.05;1.67;;;;;;;;;;4954176;28;20046;-77
2021/09/28 10:40:50;;;;;;;10.20;1.70;;;;;;;;;;4977059;28;20044;-76
2021/09/28 10:43:26;;;;;;;7.57;1.33;;;;;;;;;;4953699;28;20038;-77
2021/09/28 10:45:52;;;;;;;6.03;1.30;;;;;;;;;;4954379;28;20397;-77
2021/09/28 10:48:22;;;;;;;4.78;1.17;;;;;;;;;;4940919;28;20035;-77
2021/09/28 10:51:03;;;;;;;8.25;1.42;;;;;;;;;;4963926;28;20040;-77
2021/09/28 10:53:33;;;;;;;7.05;1.60;;;;;;;;;;4969875;28;20057;-77
2021/09/28 10:56:01;;;;;;;5.47;1.40;;;;;;;;;;4960933;28;20037;-77
2021/09/28 10:58:28;;;;;;;8.05;1.30;;;;;;;;;;4956740;28;21400;-77
2021/09/28 11:00:55;;;;;;;8.90;1.70;;;;;;;;;;4972907;28;20062;-77
2021/09/28 11:03:56;;;;;;;6.25;1.35;;;;;;;;;;4954312;28;20022;-77
2021/09/28 11:06:41;;;;;;;6.60;1.38;;;;;;;;;;4895141;29;20040;-78
2021/09/28 11:09:10;;;;;;;8.65;1.38;;;;;;;;;;4898418;29;20143;-78
2021/09/28 11:11:37;;;;;;;7.05;1.52;;;;;;;;;;4900271;28;20048;-79
2021/09/28 11:14:05;;;;;;;7.68;1.85;;;;;;;;;;4886108;29;20139;-78
2021/09/28 11:16:52;;;;;;;10.38;1.63;;;;;;;;;;4883252;29;20040;-76
2021/09/28 11:19:18;;;;;;;7.88;1.40;;;;;;;;;;4897190;29;20055;-78
2021/09/28 11:21:45;;;;;;;11.50;1.73;;;;;;;;;;4888634;29;20039;-77
2021/09/28 11:24:12;;;;;;;10.20;1.85;;;;;;;;;;4881054;29;20036;-77
2021/09/28 11:26:42;;;;;;;7.93;1.88;;;;;;;;;;4904050;29;20032;-76
2021/09/28 11:29:10;;;;;;;8.93;1.75;;;;;;;;;;4900488;29;20055;-77
2021/09/28 11:31:38;;;;;;;6.65;1.90;;;;;;;;;;4887543;29;20051;-78
2021/09/28 11:34:04;;;;;;;7.38;1.40;;;;;;;;;;4917868;29;20051;-77
2021/09/28 11:36:32;;;;;;;17.83;1.90;;;;;;;;;;4897443;29;20039;-78
2021/09/28 11:38:58;;;;;;;8.13;1.40;;;;;;;;;;4903099;29;20086;-78
2021/09/28 11:41:25;;;;;;;7.03;1.40;;;;;;;;;;4950448;28;20063;-77
2021/09/28 11:43:52;;;;;;;6.55;1.33;;;;;;;;;;4976345;28;20138;-78
2021/09/28 11:46:19;;;;;;;5.97;1.38;;;;;;;;;;4953892;28;20030;-77
2021/09/28 11:48:54;;;;;;;6.82;1.27;;;;;;;;;;4960912;28;20632;-77
2021/09/28 11:51:24;;;;;;;;;;;;;;;;;;4953347;28;20034;-77
2021/09/28 11:53:51;;;;;;;4.32;1.20;;;;;;;;;;4958891;28;19949;-77
2021/09/28 11:56:19;;;;;;;6.38;1.55;;;;;;;;;;4956044;28;20071;-77
2021/09/28 11:58:46;;;;;;;3.60;0.90;;;;;;;;;;4960626;28;20591;-77
2021/09/28 12:01:13;;;;;;;5.38;1.10;;;;;;;;;;4955796;28;20125;-78
2021/09/28 12:04:01;;;;;;;4.45;1.00;;;;;;;;;;4960856;28;20026;-77
2021/09/28 12:06:35;;;;;;;6.68;1.65;;;;;;;;;;4949386;28;20100;-77
2021/09/28 12:09:04;;;;;;;9.27;1.13;;;;;;;;;;4953707;28;20093;-78
2021/09/28 12:11:33;;;;;;;7.57;1.83;;;;;;;;;;4958789;28;20112;-77
2021/09/28 12:13:59;;;;;;;7.10;1.65;;;;;;;;;;4956734;28;20041;-78
2021/09/28 12:16:25;;;;;;;5.93;1.05;;;;;;;;;;4973907;28;20034;-77
2021/09/28 12:19:05;;;;;;;5.13;1.00;;;;;;;;;;4969231;28;20041;-77
2021/09/28 12:21:34;;;;;;;6.95;2.33;;;;;;;;;;4955182;28;20033;-78
2021/09/28 12:24:17;;;;;;;6.65;1.20;;;;;;;;;;4957583;28;20054;-77
2021/09/28 12:26:43;;;;;;;5.65;1.00;;;;;;;;;;4958829;28;20043;-76
2021/09/28 12:29:14;;;;;;;8.38;3.15;;;;;;;;;;4956717;28;20459;-75
2021/09/28 12:31:41;;;;;;;9.40;3.15;;;;;;;;;;4960485;28;20038;-76
2021/09/28 12:34:08;;;;;;;8.07;2.08;;;;;;;;;;4968691;28;20041;-78
2021/09/28 12:36:35;;;;;;;7.07;2.13;;;;;;;;;;4957382;28;20027;-76
2021/09/28 12:39:14;;;;;;;6.45;1.40;;;;;;;;;;4975594;28;20125;-77
2021/09/28 12:42:00;;;;;;;11.60;3.90;;;;;;;;;;4952238;28;20034;-77
2021/09/28 12:44:27;;;;;;;7.13;2.15;;;;;;;;;;4971441;28;20818;-77
2021/09/28 12:46:56;;;;;;;7.13;1.67;;;;;;;;;;4967831;28;20042;-77
2021/09/28 12:49:29;;;;;;;9.48;2.05;;;;;;;;;;4954109;28;20572;-76
2021/09/28 12:51:55;;;;;;;8.73;2.25;;;;;;;;;;4957300;28;20048;-77
2021/09/28 12:54:22;;;;;;;7.07;2.47;;;;;;;;;;4971638;28;20065;-76
2021/09/28 12:56:49;;;;;;;8.68;1.73;;;;;;;;;;4957048;28;20037;-77
2021/09/28 12:59:15;;;;;;;9.13;2.25;;;;;;;;;;4952109;28;20077;-77
2021/09/28 13:01:45;;;;;;;8.75;2.15;;;;;;;;;;4956437;28;20042;-76
2021/09/28 13:04:15;;;;;;;9.07;1.98;;;;;;;;;;4951584;28;20152;-76
2021/09/28 13:06:44;;;;;;;8.00;2.63;;;;;;;;;;4955364;28;20043;-76
2021/09/28 13:09:11;;;;;;;7.78;2.05;;;;;;;;;;4956695;28;20713;-77
2021/09/28 13:11:37;;;;;;;6.75;1.80;;;;;;;;;;4959420;28;20042;-75
2021/09/28 13:14:04;;;;;;;6.70;1.50;;;;;;;;;;4959573;28;20523;-77
2021/09/28 13:16:31;;;;;;;7.57;2.70;;;;;;;;;;4969618;28;20390;-77
2021/09/28 13:18:57;;;;;;;7.15;1.30;;;;;;;;;;4960085;28;20039;-76
2021/09/28 13:21:23;;;;;;;7.43;1.80;;;;;;;;;;4955380;28;20031;-76
2021/09/28 13:23:49;;;;;;;7.85;2.10;;;;;;;;;;4971554;28;20035;-76
2021/09/28 13:26:15;;;;;;;7.50;2.80;;;;;;;;;;4957815;28;20038;-76
2021/09/28 13:28:41;;;;;;;8.93;1.67;;;;;;;;;;4960778;28;20538;-77
2021/09/28 13:31:08;;;;;;;10.05;2.80;;;;;;;;;;4957085;28;20054;-77
2021/09/28 13:33:34;;;;;;;7.63;1.67;;;;;;;;;;4962369;28;20034;-76
2021/09/28 13:36:01;;;;;;;12.18;2.58;;;;;;;;;;4976862;28;20026;-76
2021/09/28 13:38:27;;;;;;;10.50;1.98;;;;;;;;;;4977617;28;22669;-77
2021/09/28 13:40:53;;;;;;;8.38;1.98;;;;;;;;;;4971534;28;20039;-77
2021/09/28 13:43:20;;;;;;;8.70;2.15;;;;;;;;;;4959016;28;20049;-77
2021/09/28 13:45:47;;;;;;;6.45;1.70;;;;;;;;;;4961552;28;20061;-76
2021/09/28 13:48:13;;;;;;;10.50;1.83;;;;;;;;;;4959622;28;20062;-76
2021/09/28 13:50:40;;;;;;;9.95;1.73;;;;;;;;;;4978978;28;20160;-76
2021/09/28 13:53:06;;;;;;;7.72;2.17;;;;;;;;;;4977962;28;20038;-78
2021/09/28 13:55:33;;;;;;;7.43;1.80;;;;;;;;;;4958298;28;20053;-78
2021/09/28 13:58:02;;;;;;;6.38;1.60;;;;;;;;;;4958260;28;20048;-78
2021/09/28 14:00:29;;;;;;;9.45;2.15;;;;;;;;;;4957606;28;20038;-77
2021/09/28 14:02:55;;;;;;;8.43;1.80;;;;;;;;;;4965003;28;20121;-77
2021/09/28 14:05:21;;;;;;;10.82;2.65;;;;;;;;;;4955441;28;20058;-76
2021/09/28 14:07:47;;;;;;;8.65;2.33;;;;;;;;;;4975964;28;20060;-77
2021/09/28 14:10:13;;;;;;;8.30;2.28;;;;;;;;;;4955834;28;20070;-77
2021/09/28 14:12:41;;;;;;;7.93;1.40;;;;;;;;;;4974171;28;20033;-77
2021/09/28 14:15:08;;;;;;;11.13;1.70;;;;;;;;;;4961037;28;20035;-77
2021/09/28 14:17:35;;;;;;;9.00;1.50;;;;;;;;;;4964198;28;20142;-77
2021/09/28 14:20:02;;;;;;;8.00;1.40;;;;;;;;;;4956734;28;20034;-77
2021/09/28 14:22:28;;;;;;;10.35;1.80;;;;;;;;;;4959767;28;20039;-77
2021/09/28 14:24:55;;;;;;;6.32;1.38;;;;;;;;;;4963544;28;20121;-77
2021/09/28 14:27:21;;;;;;;6.25;1.40;;;;;;;;;;4957761;28;20428;-77
2021/09/28 14:29:47;;;;;;;7.40;1.63;;;;;;;;;;4964435;28;20046;-76
2021/09/28 14:32:16;;;;;;;9.38;1.17;;;;;;;;;;4958932;28;20542;-78
2021/09/28 14:34:42;;;;;;;4.68;1.30;;;;;;;;;;4960984;28;20038;-77
2021/09/28 14:37:09;;;;;;;6.32;1.60;;;;;;;;;;4958782;28;20053;-76
2021/09/28 14:39:35;;;;;;;4.72;1.48;;;;;;;;;;4962020;28;20027;-76
2021/09/28 14:42:01;;;;;;;5.95;1.58;;;;;;;;;;4964314;28;20030;-76
2021/09/28 14:44:27;;;;;;;5.53;1.73;;;;;;;;;;4955959;28;21022;-75
2021/09/28 14:46:54;;;;;;;8.45;1.50;;;;;;;;;;4958634;28;20118;-76
2021/09/28 14:49:20;;;;;;;5.57;1.60;;;;;;;;;;4957071;28;20046;-77